M I D A S
Marine Information and Data Acquisition System
Tripno 709 of the Zeeleeuw from 2004-05-06 07:29:35 to 2004-05-06 13:38:23
Back to CruiseResearch ActivitiesStationsMapUnderway DataData graphs

EquipmentUnitsComments
TimeDGPSUTC
LatitudeDGPSDM.mWGS84
LongitudeDGPSDM.mWGS84
SpeedMeteo Stationm/sRelative wind speed
DirectionMeteo StationdegRelative wind direction
TemperatureMeteo Stationdeg CelciusAir temperature
PressureMeteo StationPaAtmospheric pressure
HumidityMeteo Station%Relative humidity
Missing or incorrect values are displayed as -999
Metereological data collected by the RV Zeeleeuw from 2004-05-06 07:29:35 to 2004-05-06 13:38:23
                                                                                    Next 1000 lines
Time Latitude Longitude Speed Direction Temperature Pressure Humidity
2004-05-06 07:29:45 51°13.594 2°56.1 3.2 33 9.2 99410 79
2004-05-06 07:29:50 51°13.592 2°56.103 3.3 47 9.2 99410 79
2004-05-06 07:29:55 51°13.591 2°56.106 2.1 42 9.2 99410 79
2004-05-06 07:30:00 51°13.589 2°56.109 3.1 30 9.2 99410 79
2004-05-06 07:30:05 51°13.587 2°56.113 3.2 16 9.2 99410 79
2004-05-06 07:30:10 51°13.586 2°56.118 3.1 26 9.2 99400 79
2004-05-06 07:30:15 51°13.584 2°56.122 3.4 34 9.2 99400 79
2004-05-06 07:30:20 51°13.582 2°56.126 3.4 17 9.2 99400 79
2004-05-06 07:30:25 51°13.58 2°56.13 3.2 33 9.2 99400 79
2004-05-06 07:30:30 51°13.578 2°56.135 3.6 40 9.2 99410 79
2004-05-06 07:30:36 51°13.575 2°56.142 4.2 44 9.2 99410 79
2004-05-06 07:30:40 51°13.574 2°56.146 4.4 28 9.2 99410 79
2004-05-06 07:30:45 51°13.571 2°56.153 4.9 25 9.2 99410 79
2004-05-06 07:30:50 51°13.569 2°56.16 4.7 35 9.2 99400 79
2004-05-06 07:30:55 51°13.567 2°56.167 3.7 45 9.2 99400 79
2004-05-06 07:31:00 51°13.565 2°56.174 3 73 9.2 99410 79
2004-05-06 07:31:05 51°13.563 2°56.181 3.2 11 9.2 99410 79
2004-05-06 07:31:10 51°13.561 2°56.187 4.3 43 9.2 99400 78
2004-05-06 07:31:16 51°13.559 2°56.195 5.5 39 9.2 99400 78
2004-05-06 07:31:20 51°13.557 2°56.201 3.8 24 9.2 99410 78
2004-05-06 07:31:25 51°13.555 2°56.208 5 54 9.2 99410 78
2004-05-06 07:31:30 51°13.551 2°56.214 5.3 30 9.2 99410 78
2004-05-06 07:31:35 51°13.548 2°56.221 4.6 23 9.2 99410 78
2004-05-06 07:31:40 51°13.545 2°56.226 4.9 36 9.2 99400 78
2004-05-06 07:31:45 51°13.541 2°56.231 5.7 34 9.2 99400 78
2004-05-06 07:31:50 51°13.536 2°56.236 4.2 14 9.2 99400 78
2004-05-06 07:31:55 51°13.532 2°56.239 4.1 18 9.2 99400 78
2004-05-06 07:32:00 51°13.528 2°56.242 4.8 8 9.2 99410 78
2004-05-06 07:32:06 51°13.525 2°56.245 3.2 5 9.2 99410 78
2004-05-06 07:32:10 51°13.523 2°56.246 3.6 27 9.2 99400 78
2004-05-06 07:32:15 51°13.522 2°56.248 1.5 27 9.2 99400 78
2004-05-06 07:32:20 51°13.521 2°56.248 3 7 9.2 99410 78
2004-05-06 07:32:26 51°13.521 2°56.248 2.8 19 9.2 99410 78
2004-05-06 07:32:30 51°13.522 2°56.248 2.9 14 9.2 99410 78
2004-05-06 07:32:36 51°13.523 2°56.248 1.8 14 9.2 99410 78
2004-05-06 07:32:40 51°13.525 2°56.248 1.6 31 9.2 99410 78
2004-05-06 07:32:46 51°13.528 2°56.248 1.2 231 9.2 99410 78
2004-05-06 07:32:51 51°13.53 2°56.248 1.4 321 9.2 99410 78
2004-05-06 07:32:56 51°13.532 2°56.248 1.7 326 9.2 99410 78
2004-05-06 07:33:01 51°13.534 2°56.248 1.7 354 9.2 99410 78
2004-05-06 07:33:06 51°13.535 2°56.247 2.3 337 9.2 99410 78
2004-05-06 07:33:11 51°13.534 2°56.247 1.9 325 9.2 99410 78
2004-05-06 07:33:16 51°13.532 2°56.246 2.2 334 9.2 99410 78
2004-05-06 07:33:21 51°13.53 2°56.246 2.6 331 9.3 99410 78
2004-05-06 07:33:26 51°13.528 2°56.244 2.2 323 9.3 99410 78
2004-05-06 07:33:31 51°13.526 2°56.243 3.5 336 9.3 99410 79
2004-05-06 07:33:36 51°13.524 2°56.242 1.9 310 9.3 99410 79
2004-05-06 07:33:41 51°13.524 2°56.241 3.4 334 9.3 99410 79
2004-05-06 07:33:46 51°13.524 2°56.242 2.8 315 9.3 99410 79
2004-05-06 07:33:51 51°13.525 2°56.243 1.7 338 9.3 99410 79
2004-05-06 07:33:56 51°13.526 2°56.244 1 298 9.3 99410 79
2004-05-06 07:34:01 51°13.527 2°56.246 1.3 254 9.4 99410 79
2004-05-06 07:34:06 51°13.53 2°56.249 2.1 233 9.4 99410 79
2004-05-06 07:34:11 51°13.531 2°56.252 2.6 241 9.4 99410 79
2004-05-06 07:34:16 51°13.533 2°56.254 1.8 268 9.4 99410 79
2004-05-06 07:34:21 51°13.535 2°56.256 1.4 340 9.4 99410 79
2004-05-06 07:34:26 51°13.535 2°56.256 1.9 30 9.4 99410 79
2004-05-06 07:34:31 51°13.535 2°56.254 1.3 358 9.5 99410 79
2004-05-06 07:34:36 51°13.533 2°56.251 2.3 296 9.5 99410 79
2004-05-06 07:34:40 51°13.532 2°56.247 2.7 317 9.5 99410 79
2004-05-06 07:34:46 51°13.53 2°56.241 4.2 43 9.5 99410 79
2004-05-06 07:34:51 51°13.53 2°56.235 4.2 39 9.5 99410 79
2004-05-06 07:34:56 51°13.529 2°56.228 3.2 255 9.5 99410 79
2004-05-06 07:35:00 51°13.529 2°56.223 3.5 299 9.6 99410 79
2004-05-06 07:35:04 51°13.53 2°56.217 2.7 333 9.6 99410 79
2004-05-06 07:35:10 51°13.531 2°56.21 3 286 9.6 99410 79
2004-05-06 07:35:15 51°13.531 2°56.204 3.8 287 9.6 99410 79
2004-05-06 07:35:20 51°13.533 2°56.198 4.2 289 9.6 99410 79
2004-05-06 07:35:25 51°13.534 2°56.193 3.2 333 9.6 99410 79
2004-05-06 07:35:30 51°13.535 2°56.187 4.4 304 9.6 99410 78
2004-05-06 07:35:35 51°13.536 2°56.182 3.8 294 9.6 99410 78
2004-05-06 07:35:40 51°13.538 2°56.178 3.1 290 9.6 99410 78
2004-05-06 07:35:46 51°13.539 2°56.172 3 273 9.6 99410 78
2004-05-06 07:35:50 51°13.54 2°56.169 2.6 263 9.6 99410 78
2004-05-06 07:35:55 51°13.541 2°56.166 3.7 273 9.6 99410 78
2004-05-06 07:36:00 51°13.542 2°56.164 3.3 263 9.6 99410 78
2004-05-06 07:36:06 51°13.543 2°56.161 3.6 271 9.6 99410 78
2004-05-06 07:36:10 51°13.544 2°56.16 3.3 277 9.6 99410 78
2004-05-06 07:36:15 51°13.544 2°56.157 3.2 272 9.6 99410 78
2004-05-06 07:36:20 51°13.545 2°56.156 2.4 267 9.6 99410 78
2004-05-06 07:36:26 51°13.546 2°56.153 1.8 253 9.6 99410 78
2004-05-06 07:36:30 51°13.547 2°56.152 2 256 9.6 99410 78
2004-05-06 07:36:35 51°13.548 2°56.15 2.2 251 9.6 99410 78
2004-05-06 07:36:40 51°13.548 2°56.148 4.4 236 9.6 99410 77
2004-05-06 07:36:45 51°13.549 2°56.147 3.7 239 9.6 99410 77
2004-05-06 07:36:50 51°13.55 2°56.145 2.8 234 9.6 99410 77
2004-05-06 07:36:55 51°13.55 2°56.144 2.8 237 9.6 99410 77
2004-05-06 07:37:00 51°13.551 2°56.142 2.4 245 9.6 99410 77
2004-05-06 07:37:05 51°13.552 2°56.141 1.9 250 9.6 99410 77
2004-05-06 07:37:10 51°13.553 2°56.139 2.5 262 9.6 99410 77
2004-05-06 07:37:16 51°13.554 2°56.136 3.5 261 9.6 99410 77
2004-05-06 07:37:20 51°13.555 2°56.134 3.1 251 9.6 99410 77
2004-05-06 07:37:25 51°13.556 2°56.132 2.8 261 9.6 99410 77
2004-05-06 07:37:30 51°13.557 2°56.129 2 273 9.6 99410 77
2004-05-06 07:37:35 51°13.558 2°56.127 1.8 257 9.6 99410 77
2004-05-06 07:37:40 51°13.559 2°56.124 2.8 268 9.6 99410 77
2004-05-06 07:37:45 51°13.56 2°56.122 2.5 256 9.6 99410 77
2004-05-06 07:37:50 51°13.561 2°56.12 1.9 285 9.6 99420 77
2004-05-06 07:37:55 51°13.562 2°56.117 2.7 274 9.6 99420 77
2004-05-06 07:38:00 51°13.563 2°56.115 2.3 297 9.6 99410 77
2004-05-06 07:38:04 51°13.563 2°56.113 2.5 264 9.6 99410 77
2004-05-06 07:38:10 51°13.564 2°56.11 1.9 258 9.5 99410 77
2004-05-06 07:38:15 51°13.565 2°56.108 3.3 280 9.5 99410 77
2004-05-06 07:38:20 51°13.565 2°56.106 3.2 279 9.5 99410 77
2004-05-06 07:38:25 51°13.566 2°56.103 3.5 272 9.5 99410 77
2004-05-06 07:38:30 51°13.567 2°56.101 3.1 279 9.6 99410 77
2004-05-06 07:38:35 51°13.568 2°56.099 1.9 313 9.6 99410 77
2004-05-06 07:38:40 51°13.568 2°56.097 1.8 310 9.6 99410 77
2004-05-06 07:38:45 51°13.569 2°56.095 1.4 292 9.6 99410 77
2004-05-06 07:38:50 51°13.569 2°56.092 1.3 278 9.6 99410 77
2004-05-06 07:38:55 51°13.57 2°56.089 1.5 318 9.6 99410 77
2004-05-06 07:39:00 51°13.571 2°56.086 1.2 302 9.6 99410 77
2004-05-06 07:39:04 51°13.572 2°56.083 1.5 315 9.6 99410 77
2004-05-06 07:39:10 51°13.574 2°56.078 2.2 291 9.6 99410 77
2004-05-06 07:39:15 51°13.575 2°56.074 2.6 272 9.6 99410 77
2004-05-06 07:39:20 51°13.577 2°56.069 2 296 9.6 99420 77
2004-05-06 07:39:26 51°13.579 2°56.062 1.8 309 9.6 99420 77
2004-05-06 07:39:30 51°13.581 2°56.057 1.4 305 9.6 99410 77
2004-05-06 07:39:35 51°13.584 2°56.051 1.5 298 9.6 99410 77
2004-05-06 07:39:40 51°13.587 2°56.043 2.3 280 9.7 99410 77
2004-05-06 07:39:46 51°13.591 2°56.034 2 330 9.7 99410 77
2004-05-06 07:39:50 51°13.594 2°56.028 2.5 314 9.7 99410 77
2004-05-06 07:39:55 51°13.597 2°56.019 2.6 329 9.7 99410 77
2004-05-06 07:40:00 51°13.601 2°56.01 2.7 333 9.7 99410 77
2004-05-06 07:40:04 51°13.604 2°56.002 2.7 327 9.7 99410 77
2004-05-06 07:40:08 51°13.608 2°55.995 3.2 314 9.7 99410 77
2004-05-06 07:40:15 51°13.614 2°55.98 3 228 9.7 99410 77
2004-05-06 07:40:19 51°13.617 2°55.972 2.4 321 9.8 99410 77
2004-05-06 07:40:25 51°13.623 2°55.959 3.1 308 9.8 99410 77
2004-05-06 07:40:30 51°13.628 2°55.948 3.4 307 9.8 99410 77
2004-05-06 07:40:35 51°13.633 2°55.937 3.4 305 9.8 99410 77
2004-05-06 07:40:40 51°13.638 2°55.925 3.1 310 9.8 99410 77
2004-05-06 07:40:45 51°13.643 2°55.914 2.9 320 9.8 99410 77
2004-05-06 07:40:50 51°13.648 2°55.902 3.3 339 9.9 99410 77
2004-05-06 07:40:55 51°13.654 2°55.89 3.6 342 9.9 99410 77
2004-05-06 07:41:00 51°13.659 2°55.879 3.6 298 9.9 99410 77
2004-05-06 07:41:05 51°13.665 2°55.867 4.2 300 9.9 99410 77
2004-05-06 07:41:10 51°13.67 2°55.855 3.8 303 9.9 99410 77
2004-05-06 07:41:15 51°13.676 2°55.843 3.6 305 9.9 99410 77
2004-05-06 07:41:20 51°13.682 2°55.831 2.4 315 9.9 99410 77
2004-05-06 07:41:26 51°13.689 2°55.817 2.8 228 9.9 99410 77
2004-05-06 07:41:30 51°13.694 2°55.808 3.6 284 9.9 99410 77
2004-05-06 07:41:35 51°13.701 2°55.797 3.2 278 9.9 99410 77
2004-05-06 07:41:40 51°13.707 2°55.786 3.3 279 9.9 99410 77
2004-05-06 07:41:44 51°13.713 2°55.777 2.5 290 9.9 99410 77
2004-05-06 07:41:50 51°13.722 2°55.764 2.6 275 9.9 99410 76
2004-05-06 07:41:56 51°13.731 2°55.751 3.2 272 9.9 99410 76
2004-05-06 07:42:00 51°13.737 2°55.743 3 262 9.9 99410 76
2004-05-06 07:42:05 51°13.744 2°55.732 1.6 253 9.9 99410 76
2004-05-06 07:42:10 51°13.752 2°55.722 2.8 237 9.9 99410 76
2004-05-06 07:42:15 51°13.76 2°55.712 1.8 243 9.9 99410 76
2004-05-06 07:42:20 51°13.768 2°55.702 1.8 274 9.9 99410 76
2004-05-06 07:42:25 51°13.776 2°55.693 0.9 271 9.9 99410 76
2004-05-06 07:42:30 51°13.785 2°55.684 1.1 285 9.9 99410 76
2004-05-06 07:42:35 51°13.793 2°55.675 1.5 307 9.9 99410 76
2004-05-06 07:42:40 51°13.802 2°55.666 1.7 298 9.9 99410 76
2004-05-06 07:42:45 51°13.811 2°55.658 0.9 250 9.9 99410 76
2004-05-06 07:42:50 51°13.82 2°55.65 0.3 259 9.9 99410 76
2004-05-06 07:42:55 51°13.829 2°55.643 0.7 35 9.9 99410 76
2004-05-06 07:43:00 51°13.839 2°55.636 0.6 109 9.9 99410 76
2004-05-06 07:43:04 51°13.847 2°55.63 0.6 107 9.9 99410 76
2004-05-06 07:43:10 51°13.859 2°55.621 1.3 124 9.9 99410 76
2004-05-06 07:43:15 51°13.869 2°55.614 1.2 91 9.9 99410 76
2004-05-06 07:43:20 51°13.88 2°55.606 1.1 73 9.9 99410 76
2004-05-06 07:43:24 51°13.888 2°55.6 0.8 78 9.9 99410 76
2004-05-06 07:43:31 51°13.902 2°55.589 0.7 75 10 99410 76
2004-05-06 07:43:35 51°13.911 2°55.583 0.3 74 10 99410 76
2004-05-06 07:43:40 51°13.921 2°55.576 1.3 46 10 99410 77
2004-05-06 07:43:45 51°13.932 2°55.569 1.4 22 10 99410 77
2004-05-06 07:43:50 51°13.942 2°55.561 1.3 40 10.1 99410 77
2004-05-06 07:43:55 51°13.953 2°55.554 0.6 39 10.1 99410 77
2004-05-06 07:44:00 51°13.964 2°55.546 0.6 28 10.1 99410 77
2004-05-06 07:44:06 51°13.977 2°55.537 0.5 310 10.1 99410 77
2004-05-06 07:44:10 51°13.985 2°55.53 0.4 300 10.1 99410 77
2004-05-06 07:44:15 51°13.996 2°55.522 1.1 296 10.1 99410 77
2004-05-06 07:44:20 51°14.007 2°55.514 1.2 300 10.1 99410 76
2004-05-06 07:44:25 51°14.018 2°55.506 1.4 315 10.1 99410 76
2004-05-06 07:44:30 51°14.03 2°55.498 1.8 328 10.1 99410 76
2004-05-06 07:44:35 51°14.041 2°55.491 2.3 351 10.1 99410 76
2004-05-06 07:44:40 51°14.052 2°55.482 2.2 345 10.1 99410 76
2004-05-06 07:44:46 51°14.066 2°55.472 2.1 356 10.1 99410 76
2004-05-06 07:44:50 51°14.075 2°55.466 2.9 335 10.2 99410 76
2004-05-06 07:44:56 51°14.089 2°55.456 3.1 326 10.2 99410 76
2004-05-06 07:45:00 51°14.098 2°55.449 2.4 340 10.2 99410 76
2004-05-06 07:45:05 51°14.11 2°55.44 3.1 358 10.2 99410 76
2004-05-06 07:45:10 51°14.122 2°55.431 3.2 2 10.2 99410 76
2004-05-06 07:45:16 51°14.136 2°55.42 3.5 345 10.2 99410 76
2004-05-06 07:45:20 51°14.146 2°55.412 3.2 346 10.2 99410 76
2004-05-06 07:45:26 51°14.161 2°55.399 3.5 346 10.2 99410 76
2004-05-06 07:45:30 51°14.171 2°55.39 4.5 350 10.2 99410 76
2004-05-06 07:45:35 51°14.183 2°55.378 3.4 349 10.2 99410 76
2004-05-06 07:45:40 51°14.195 2°55.366 3.6 346 10.2 99410 76
2004-05-06 07:45:46 51°14.21 2°55.35 3.9 318 10.2 99410 76
2004-05-06 07:45:50 51°14.219 2°55.338 3.5 325 10.2 99410 75
2004-05-06 07:45:56 51°14.233 2°55.321 3.2 345 10.2 99410 75
2004-05-06 07:46:00 51°14.242 2°55.309 2.9 339 10.2 99410 75
2004-05-06 07:46:05 51°14.253 2°55.293 5.7 326 10.2 99410 75
2004-05-06 07:46:10 51°14.264 2°55.276 4.4 327 10.2 99410 75
2004-05-06 07:46:15 51°14.274 2°55.258 3.6 314 10.2 99410 75
2004-05-06 07:46:20 51°14.285 2°55.241 3.8 325 10.2 99410 75
2004-05-06 07:46:24 51°14.293 2°55.226 5.2 318 10.2 99410 75
2004-05-06 07:46:30 51°14.305 2°55.204 4.6 320 10.2 99410 75
2004-05-06 07:46:36 51°14.316 2°55.181 3.8 316 10.2 99410 75
2004-05-06 07:46:40 51°14.323 2°55.165 4.4 343 10.2 99410 75
2004-05-06 07:46:44 51°14.33 2°55.149 5.1 348 10.2 99410 75
2004-05-06 07:46:50 51°14.341 2°55.124 5 355 10.2 99400 75
2004-05-06 07:46:55 51°14.35 2°55.104 4.5 346 10.2 99400 75
2004-05-06 07:47:00 51°14.359 2°55.084 6.2 354 10.2 99410 75
2004-05-06 07:47:05 51°14.368 2°55.064 5.8 332 10.2 99410 75
2004-05-06 07:47:10 51°14.377 2°55.043 4.4 334 10.2 99400 75
2004-05-06 07:47:15 51°14.385 2°55.021 7.3 334 10.2 99400 75
2004-05-06 07:47:19 51°14.392 2°55.003 7.6 335 10.2 99400 75
2004-05-06 07:47:24 51°14.399 2°54.979 6.6 331 10.2 99400 75
2004-05-06 07:47:30 51°14.407 2°54.95 7.9 330 10.2 99410 75
2004-05-06 07:47:35 51°14.412 2°54.925 8.2 323 10.2 99410 75
2004-05-06 07:47:40 51°14.418 2°54.899 7.6 328 10.2 99400 75
2004-05-06 07:47:44 51°14.421 2°54.878 7.7 329 10.2 99400 75
2004-05-06 07:47:50 51°14.425 2°54.846 8.2 331 10.2 99400 75
2004-05-06 07:47:56 51°14.428 2°54.814 9.2 332 10.2 99400 75
2004-05-06 07:48:00 51°14.429 2°54.792 9.3 336 10.2 99390 75
2004-05-06 07:48:05 51°14.43 2°54.764 10 327 10.2 99390 75
2004-05-06 07:48:10 51°14.43 2°54.736 9.1 331 10.2 99400 74
2004-05-06 07:48:15 51°14.43 2°54.708 9.4 335 10.2 99400 74
2004-05-06 07:48:20 51°14.43 2°54.68 10.1 336 10.2 99390 74
2004-05-06 07:48:25 51°14.43 2°54.652 10.2 333 10.2 99390 74
2004-05-06 07:48:30 51°14.431 2°54.624 9.6 332 10.2 99390 75
2004-05-06 07:48:35 51°14.431 2°54.595 10.1 329 10.2 99390 75
2004-05-06 07:48:40 51°14.432 2°54.566 10 329 10.2 99390 75
2004-05-06 07:48:46 51°14.432 2°54.531 11 329 10.2 99390 75
2004-05-06 07:48:50 51°14.433 2°54.507 11.1 331 10.2 99390 74
2004-05-06 07:48:55 51°14.433 2°54.477 10.7 331 10.2 99390 74
2004-05-06 07:48:59 51°14.432 2°54.452 11.6 329 10.2 99380 74
2004-05-06 07:49:04 51°14.431 2°54.422 11.6 332 10.2 99380 74
2004-05-06 07:49:10 51°14.427 2°54.386 10.9 334 10.2 99380 74
2004-05-06 07:49:15 51°14.423 2°54.356 11.3 335 10.2 99380 74
2004-05-06 07:49:19 51°14.419 2°54.333 11.8 337 10.2 99370 74
2004-05-06 07:49:26 51°14.409 2°54.293 11.9 336 10.2 99370 74
2004-05-06 07:49:30 51°14.403 2°54.271 10.8 339 10.2 99380 74
2004-05-06 07:49:35 51°14.394 2°54.243 11.5 339 10.2 99380 74
2004-05-06 07:49:40 51°14.386 2°54.216 11.1 339 10.2 99380 74
2004-05-06 07:49:45 51°14.377 2°54.189 10.3 338 10.2 99380 74
2004-05-06 07:49:50 51°14.368 2°54.162 10.9 336 10.1 99380 74
2004-05-06 07:49:55 51°14.358 2°54.135 11 334 10.1 99380 74
2004-05-06 07:50:00 51°14.349 2°54.108 10.1 335 10.1 99380 74
2004-05-06 07:50:05 51°14.339 2°54.081 10.9 341 10.1 99380 74
2004-05-06 07:50:10 51°14.329 2°54.055 10.8 345 10.1 99390 74
2004-05-06 07:50:15 51°14.319 2°54.029 10.5 352 10.1 99390 74
2004-05-06 07:50:20 51°14.308 2°54.003 11.6 339 10.1 99380 74
2004-05-06 07:50:26 51°14.295 2°53.972 9.9 346 10.1 99380 74
2004-05-06 07:50:30 51°14.286 2°53.951 10.1 344 10.1 99390 74
2004-05-06 07:50:35 51°14.275 2°53.926 10.3 346 10.1 99390 74
2004-05-06 07:50:40 51°14.264 2°53.9 10.3 347 10.1 99390 75
2004-05-06 07:50:45 51°14.253 2°53.874 10.4 348 10.1 99390 75
2004-05-06 07:50:50 51°14.243 2°53.848 10.2 346 10.1 99390 75
2004-05-06 07:50:55 51°14.234 2°53.82 10.5 347 10.1 99390 75
2004-05-06 07:51:00 51°14.224 2°53.793 11.7 343 10.1 99390 75
2004-05-06 07:51:06 51°14.215 2°53.759 11.3 341 10.1 99390 75
2004-05-06 07:51:10 51°14.209 2°53.736 11.4 340 10.1 99390 75
2004-05-06 07:51:16 51°14.201 2°53.7 11.4 340 10.1 99390 75
2004-05-06 07:51:20 51°14.196 2°53.676 11.2 339 10.1 99390 75
2004-05-06 07:51:25 51°14.191 2°53.646 11.1 332 10.1 99390 75
2004-05-06 07:51:30 51°14.185 2°53.617 10.5 332 10.1 99390 75
2004-05-06 07:51:35 51°14.18 2°53.587 11.3 337 10.1 99390 75
2004-05-06 07:51:40 51°14.174 2°53.557 11.5 337 10 99390 75
2004-05-06 07:51:46 51°14.166 2°53.522 10.8 333 10 99390 75
2004-05-06 07:51:50 51°14.16 2°53.499 11.1 335 10 99390 75
2004-05-06 07:51:55 51°14.15 2°53.47 11.2 335 10 99390 75
2004-05-06 07:52:00 51°14.14 2°53.443 10.9 340 10 99390 75
2004-05-06 07:52:04 51°14.132 2°53.421 10.1 343 10 99390 75
2004-05-06 07:52:10 51°14.119 2°53.39 10.2 345 10 99380 75
2004-05-06 07:52:15 51°14.108 2°53.363 10 353 10 99380 75
2004-05-06 07:52:20 51°14.096 2°53.337 10.8 350 10 99380 75
2004-05-06 07:52:26 51°14.082 2°53.306 10.4 348 10 99380 75
2004-05-06 07:52:30 51°14.074 2°53.285 11.6 349 10 99380 75
2004-05-06 07:52:35 51°14.063 2°53.258 10.7 351 10 99380 75
2004-05-06 07:52:40 51°14.052 2°53.23 11.6 351 10 99390 75
2004-05-06 07:52:44 51°14.044 2°53.208 11.6 349 10 99390 75
2004-05-06 07:52:50 51°14.031 2°53.175 11.7 346 10 99390 75
2004-05-06 07:52:55 51°14.021 2°53.147 11.2 348 10 99390 75
2004-05-06 07:53:00 51°14.011 2°53.119 12.3 346 10 99390 75
2004-05-06 07:53:05 51°14 2°53.092 12.4 345 10 99390 75
2004-05-06 07:53:11 51°13.987 2°53.059 12.1 345 10 99390 76
2004-05-06 07:53:15 51°13.979 2°53.037 13.6 344 10 99390 76
2004-05-06 07:53:20 51°13.968 2°53.009 13 346 10 99390 76
2004-05-06 07:53:26 51°13.955 2°52.976 12.5 347 10 99390 76
2004-05-06 07:53:30 51°13.946 2°52.954 12.5 347 10 99380 75
2004-05-06 07:53:35 51°13.935 2°52.927 11.7 347 10 99380 75
2004-05-06 07:53:39 51°13.926 2°52.905 11.8 348 10 99390 75
2004-05-06 07:53:45 51°13.913 2°52.872 11 348 10 99390 75
2004-05-06 07:53:50 51°13.902 2°52.845 10.7 348 10 99390 75
2004-05-06 07:53:55 51°13.891 2°52.817 11.3 347 10 99390 75
2004-05-06 07:54:00 51°13.881 2°52.789 10.7 346 10 99380 75
2004-05-06 07:54:05 51°13.871 2°52.76 10.4 346 10 99380 75
2004-05-06 07:54:10 51°13.861 2°52.731 10.1 344 10 99390 75
2004-05-06 07:54:15 51°13.852 2°52.702 10.6 342 10 99390 75
2004-05-06 07:54:20 51°13.843 2°52.673 10.4 342 10 99390 75
2004-05-06 07:54:26 51°13.832 2°52.637 10.3 338 10 99390 75
2004-05-06 07:54:30 51°13.825 2°52.614 11.7 349 9.9 99390 75
2004-05-06 07:54:35 51°13.816 2°52.585 10.8 343 9.9 99390 75
2004-05-06 07:54:40 51°13.806 2°52.556 12.1 348 9.9 99400 75
2004-05-06 07:54:44 51°13.798 2°52.533 12.7 349 9.9 99400 75
2004-05-06 07:54:50 51°13.786 2°52.498 13 349 10 99400 75
2004-05-06 07:54:55 51°13.776 2°52.47 12.3 351 10 99400 75
2004-05-06 07:55:00 51°13.765 2°52.442 13.6 346 10 99390 76
2004-05-06 07:55:05 51°13.754 2°52.414 13 352 10 99390 76
2004-05-06 07:55:10 51°13.742 2°52.387 12.4 345 10 99390 76
2004-05-06 07:55:16 51°13.729 2°52.353 12 345 10 99390 76
2004-05-06 07:55:20 51°13.721 2°52.331 12 345 10 99390 76
2004-05-06 07:55:26 51°13.709 2°52.296 11.9 342 10 99390 76
2004-05-06 07:55:29 51°13.702 2°52.279 11.8 346 10 99390 76
2004-05-06 07:55:35 51°13.691 2°52.244 12.3 347 10 99390 76
2004-05-06 07:55:40 51°13.681 2°52.215 11.7 347 10 99380 75
2004-05-06 07:55:45 51°13.671 2°52.186 11.7 350 10 99380 75
2004-05-06 07:55:50 51°13.662 2°52.156 12.2 346 9.9 99390 75
2004-05-06 07:55:55 51°13.652 2°52.128 11.4 345 9.9 99390 75
2004-05-06 07:56:00 51°13.641 2°52.099 11.6 348 10 99390 75
2004-05-06 07:56:04 51°13.632 2°52.077 12.7 350 10 99390 75
2004-05-06 07:56:10 51°13.619 2°52.044 12 347 10 99390 75
2004-05-06 07:56:15 51°13.607 2°52.017 12.5 351 10 99390 75
2004-05-06 07:56:19 51°13.597 2°51.995 12.9 351 10 99390 76
2004-05-06 07:56:25 51°13.582 2°51.963 13.4 351 10 99390 76
2004-05-06 07:56:30 51°13.57 2°51.937 12.6 350 10 99400 76
2004-05-06 07:56:35 51°13.558 2°51.911 12.3 352 10 99400 76
2004-05-06 07:56:40 51°13.545 2°51.884 12.5 350 9.9 99380 76
2004-05-06 07:56:44 51°13.536 2°51.862 13 349 9.9 99380 76
2004-05-06 07:56:50 51°13.521 2°51.83 12.6 349 9.9 99380 76
2004-05-06 07:56:56 51°13.508 2°51.797 12.8 347 9.9 99380 76
2004-05-06 07:57:00 51°13.499 2°51.775 12.7 346 9.9 99380 76
2004-05-06 07:57:06 51°13.485 2°51.742 12.3 348 9.9 99380 76
2004-05-06 07:57:10 51°13.476 2°51.719 12.2 348 9.9 99390 76
2004-05-06 07:57:15 51°13.465 2°51.692 12.8 351 9.9 99390 76
2004-05-06 07:57:20 51°13.454 2°51.664 12.7 354 9.9 99390 76
2004-05-06 07:57:25 51°13.442 2°51.637 12.8 350 9.9 99390 76
2004-05-06 07:57:30 51°13.43 2°51.609 12.1 353 9.9 99390 76
2004-05-06 07:57:35 51°13.418 2°51.583 13.2 356 9.9 99390 76
2004-05-06 07:57:40 51°13.406 2°51.556 12.5 353 9.9 99390 76
2004-05-06 07:57:45 51°13.393 2°51.53 12.6 353 9.9 99390 76
2004-05-06 07:57:50 51°13.381 2°51.503 12 354 9.9 99390 76
2004-05-06 07:57:55 51°13.369 2°51.477 12.2 354 9.9 99390 76
2004-05-06 07:58:00 51°13.357 2°51.45 12 351 9.9 99390 76
2004-05-06 07:58:05 51°13.345 2°51.423 11.7 352 9.9 99390 76
2004-05-06 07:58:10 51°13.334 2°51.395 11.1 351 9.9 99390 76
2004-05-06 07:58:15 51°13.322 2°51.367 10.6 349 9.9 99390 76
2004-05-06 07:58:20 51°13.311 2°51.339 10.4 352 9.9 99390 76
2004-05-06 07:58:25 51°13.3 2°51.312 11.3 350 9.9 99390 76
2004-05-06 07:58:30 51°13.289 2°51.284 11.6 351 9.9 99390 76
2004-05-06 07:58:35 51°13.278 2°51.255 11.7 349 9.9 99390 76
2004-05-06 07:58:40 51°13.267 2°51.228 12.7 351 9.9 99400 76
2004-05-06 07:58:46 51°13.253 2°51.195 12.8 349 9.9 99400 76
2004-05-06 07:58:50 51°13.243 2°51.173 12.3 349 9.9 99400 76
2004-05-06 07:58:55 51°13.231 2°51.147 13.1 352 9.9 99400 76
2004-05-06 07:59:00 51°13.219 2°51.12 13 349 9.9 99390 77
2004-05-06 07:59:05 51°13.206 2°51.093 12.6 346 9.9 99390 77
2004-05-06 07:59:11 51°13.192 2°51.061 12.2 347 9.9 99390 77
2004-05-06 07:59:15 51°13.182 2°51.04 12 348 9.9 99390 77
2004-05-06 07:59:20 51°13.17 2°51.013 12.5 347 9.9 99390 77
2004-05-06 07:59:25 51°13.158 2°50.986 12.2 347 9.9 99390 77
2004-05-06 07:59:30 51°13.146 2°50.959 12.2 347 9.9 99380 77
2004-05-06 07:59:35 51°13.135 2°50.931 11.5 345 9.9 99380 77
2004-05-06 07:59:40 51°13.124 2°50.903 11.6 347 9.9 99390 76
2004-05-06 07:59:46 51°13.11 2°50.869 12.3 345 9.9 99390 76
2004-05-06 07:59:50 51°13.102 2°50.847 12.1 343 9.9 99390 76
2004-05-06 07:59:55 51°13.091 2°50.819 11.9 347 9.9 99390 76
2004-05-06 08:00:00 51°13.079 2°50.791 11.7 347 9.9 99390 77
2004-05-06 08:00:04 51°13.07 2°50.769 10.9 352 9.9 99390 77
2004-05-06 08:00:10 51°13.056 2°50.736 11.3 351 9.9 99400 77
2004-05-06 08:00:16 51°13.042 2°50.703 12.1 347 9.9 99400 77
2004-05-06 08:00:20 51°13.032 2°50.682 11.6 348 9.9 99390 77
2004-05-06 08:00:26 51°13.017 2°50.649 12.1 347 9.9 99390 77
2004-05-06 08:00:30 51°13.008 2°50.628 11.6 352 9.9 99400 77
2004-05-06 08:00:35 51°12.996 2°50.601 12.8 351 9.9 99400 77
2004-05-06 08:00:40 51°12.983 2°50.574 12.8 351 9.9 99400 77
2004-05-06 08:00:46 51°12.969 2°50.542 12.8 349 9.9 99400 77
2004-05-06 08:00:51 51°12.957 2°50.515 13 350 9.9 99390 77
2004-05-06 08:00:55 51°12.948 2°50.493 12.8 350 9.9 99390 77
2004-05-06 08:01:00 51°12.937 2°50.465 11.9 350 9.9 99400 77
2004-05-06 08:01:05 51°12.926 2°50.437 12.4 347 9.9 99400 77
2004-05-06 08:01:10 51°12.914 2°50.409 12.2 348 9.9 99390 77
2004-05-06 08:01:15 51°12.903 2°50.381 12.6 348 9.9 99390 77
2004-05-06 08:01:20 51°12.892 2°50.354 12.5 350 9.9 99390 77
2004-05-06 08:01:25 51°12.881 2°50.327 11.9 352 9.9 99390 77
2004-05-06 08:01:31 51°12.866 2°50.294 11.9 350 9.9 99390 77
2004-05-06 08:01:35 51°12.857 2°50.273 12.4 351 9.9 99390 77
2004-05-06 08:01:40 51°12.845 2°50.246 12.6 348 9.9 99390 77
2004-05-06 08:01:45 51°12.833 2°50.22 11.9 349 9.9 99390 77
2004-05-06 08:01:50 51°12.821 2°50.192 12 348 9.9 99390 77
2004-05-06 08:01:55 51°12.81 2°50.165 11.9 344 9.9 99390 77
2004-05-06 08:02:00 51°12.799 2°50.137 11.3 344 9.9 99390 77
2004-05-06 08:02:05 51°12.789 2°50.108 11.8 346 9.9 99390 77
2004-05-06 08:02:10 51°12.779 2°50.079 11 347 9.9 99400 77
2004-05-06 08:02:15 51°12.77 2°50.05 11.9 345 9.9 99400 77
2004-05-06 08:02:20 51°12.76 2°50.021 11.2 347 9.9 99400 77
2004-05-06 08:02:26 51°12.749 2°49.986 12.4 355 9.9 99400 77
2004-05-06 08:02:28 51°12.745 2°49.974 12.2 351 9.9 99400 77
2004-05-06 08:02:35 51°12.731 2°49.934 13.2 352 9.9 99400 77
2004-05-06 08:02:40 51°12.721 2°49.905 12.5 353 9.9 99400 76
2004-05-06 08:02:45 51°12.71 2°49.877 13 351 9.9 99400 76
2004-05-06 08:02:50 51°12.699 2°49.849 12.7 352 10 99390 77
2004-05-06 08:02:55 51°12.688 2°49.821 12.2 353 10 99390 77
2004-05-06 08:03:00 51°12.678 2°49.793 12.1 352 10 99390 77
2004-05-06 08:03:05 51°12.667 2°49.765 12.2 352 10 99390 77
2004-05-06 08:03:10 51°12.656 2°49.737 11.6 349 10 99390 77
2004-05-06 08:03:15 51°12.645 2°49.709 11.4 352 10 99390 77
2004-05-06 08:03:20 51°12.634 2°49.681 11 353 10 99390 77
2004-05-06 08:03:25 51°12.624 2°49.652 11.2 351 10 99390 77
2004-05-06 08:03:30 51°12.614 2°49.623 11 353 10 99400 77
2004-05-06 08:03:35 51°12.604 2°49.595 11.1 351 10 99400 77
2004-05-06 08:03:40 51°12.594 2°49.566 10.8 353 10 99400 77
2004-05-06 08:03:45 51°12.584 2°49.537 11 351 10 99400 77
2004-05-06 08:03:50 51°12.574 2°49.508 10.5 349 9.9 99400 76
2004-05-06 08:03:56 51°12.562 2°49.474 10 351 9.9 99400 76
2004-05-06 08:04:00 51°12.553 2°49.451 11.3 355 9.9 99400 76
2004-05-06 08:04:05 51°12.543 2°49.423 10.7 350 9.9 99400 76
2004-05-06 08:04:10 51°12.531 2°49.395 10.6 350 9.9 99400 76
2004-05-06 08:04:15 51°12.52 2°49.366 11.2 348 9.9 99400 76
2004-05-06 08:04:19 51°12.512 2°49.344 11.2 344 9.9 99410 76
2004-05-06 08:04:26 51°12.496 2°49.304 11.3 349 9.9 99410 76
2004-05-06 08:04:31 51°12.486 2°49.276 12.6 346 9.9 99400 76
2004-05-06 08:04:35 51°12.477 2°49.253 11 349 9.9 99400 76
2004-05-06 08:04:39 51°12.469 2°49.23 11.2 351 9.9 99400 76
2004-05-06 08:04:45 51°12.457 2°49.195 10.9 351 9.9 99400 76
2004-05-06 08:04:50 51°12.447 2°49.166 11.2 351 9.9 99400 77
2004-05-06 08:04:55 51°12.437 2°49.137 12.1 353 9.9 99400 77
2004-05-06 08:05:00 51°12.427 2°49.109 12.8 351 9.9 99400 77
2004-05-06 08:05:04 51°12.418 2°49.086 11.7 352 9.9 99400 77
2004-05-06 08:05:10 51°12.405 2°49.052 11.9 354 9.9 99400 77
2004-05-06 08:05:15 51°12.395 2°49.023 11 349 9.9 99400 77
2004-05-06 08:05:20 51°12.384 2°48.995 11 350 9.9 99400 77
2004-05-06 08:05:26 51°12.372 2°48.96 11.2 350 9.9 99400 77
2004-05-06 08:05:30 51°12.364 2°48.937 11 350 9.9 99400 77
2004-05-06 08:05:35 51°12.354 2°48.908 11.3 352 9.9 99400 77
2004-05-06 08:05:40 51°12.345 2°48.878 11.5 350 9.9 99400 77
2004-05-06 08:05:45 51°12.336 2°48.848 11.2 347 9.9 99400 77
2004-05-06 08:05:50 51°12.327 2°48.819 11 350 9.9 99400 77
2004-05-06 08:05:55 51°12.318 2°48.789 11.4 352 9.9 99400 77
2004-05-06 08:06:00 51°12.308 2°48.759 10.7 349 9.9 99410 77
2004-05-06 08:06:05 51°12.299 2°48.73 11.7 352 9.9 99410 77
2004-05-06 08:06:10 51°12.289 2°48.701 11.8 351 9.9 99400 77
2004-05-06 08:06:15 51°12.278 2°48.672 12 353 9.9 99400 77
2004-05-06 08:06:20 51°12.268 2°48.644 12.2 353 9.9 99410 77
2004-05-06 08:06:25 51°12.257 2°48.615 12.7 350 9.9 99410 77
2004-05-06 08:06:30 51°12.246 2°48.587 12.7 350 9.9 99410 77
2004-05-06 08:06:35 51°12.236 2°48.558 12.5 348 9.9 99410 77
2004-05-06 08:06:40 51°12.225 2°48.53 11.9 349 9.9 99410 77
2004-05-06 08:06:45 51°12.215 2°48.501 11.5 347 9.9 99410 77
2004-05-06 08:06:50 51°12.205 2°48.472 11.6 347 9.9 99400 77
2004-05-06 08:06:55 51°12.195 2°48.443 11.1 348 9.9 99400 77
2004-05-06 08:07:00 51°12.186 2°48.413 11 347 9.9 99400 77
2004-05-06 08:07:05 51°12.177 2°48.384 10.9 344 9.9 99400 77
2004-05-06 08:07:10 51°12.167 2°48.354 10.8 345 9.9 99400 76
2004-05-06 08:07:15 51°12.159 2°48.324 10.5 349 9.9 99400 76
2004-05-06 08:07:20 51°12.15 2°48.294 10.8 346 9.9 99400 76
2004-05-06 08:07:26 51°12.14 2°48.257 10 345 9.9 99400 76
2004-05-06 08:07:30 51°12.134 2°48.233 10 346 10 99400 76
2004-05-06 08:07:35 51°12.125 2°48.202 10.5 345 10 99400 76
2004-05-06 08:07:40 51°12.117 2°48.172 10.8 348 9.9 99410 76
2004-05-06 08:07:45 51°12.108 2°48.142 10.4 351 9.9 99410 76
2004-05-06 08:07:50 51°12.099 2°48.112 10.6 352 9.9 99410 76
2004-05-06 08:07:56 51°12.087 2°48.076 11.1 344 9.9 99410 76
2004-05-06 08:08:00 51°12.08 2°48.053 11.1 345 9.9 99410 76
2004-05-06 08:08:06 51°12.069 2°48.017 10.7 344 9.9 99410 76
2004-05-06 08:08:09 51°12.063 2°48 10.5 343 10 99410 77
2004-05-06 08:08:15 51°12.054 2°47.968 10.6 345 10 99410 77
2004-05-06 08:08:20 51°12.045 2°47.941 10.2 347 10 99410 77
2004-05-06 08:08:26 51°12.037 2°47.91 10.3 348 10 99410 77
2004-05-06 08:08:30 51°12.031 2°47.89 10.4 345 10 99400 77
2004-05-06 08:08:36 51°12.026 2°47.862 9.2 338 10 99400 77
2004-05-06 08:08:40 51°12.023 2°47.843 8.9 336 10 99410 77
2004-05-06 08:08:45 51°12.021 2°47.821 8.3 330 10 99410 77
2004-05-06 08:08:50 51°12.021 2°47.801 7.6 327 10 99400 77
2004-05-06 08:08:55 51°12.022 2°47.781 7.3 318 10 99400 77
2004-05-06 08:09:00 51°12.024 2°47.763 7.1 227 10 99410 77
2004-05-06 08:09:06 51°12.027 2°47.743 6.7 310 10 99410 77
2004-05-06 08:09:10 51°12.03 2°47.731 6.5 307 10 99410 77
2004-05-06 08:09:15 51°12.034 2°47.718 5.9 286 10 99410 77
2004-05-06 08:09:20 51°12.038 2°47.705 5.7 282 10 99420 76
2004-05-06 08:09:25 51°12.043 2°47.694 4.1 281 10 99420 76
2004-05-06 08:09:30 51°12.048 2°47.685 4.9 277 10 99410 76
2004-05-06 08:09:35 51°12.053 2°47.676 4.5 267 10 99410 76
2004-05-06 08:09:40 51°12.058 2°47.669 4.1 264 10 99420 76
2004-05-06 08:09:44 51°12.062 2°47.664 3.3 257 10 99420 76
2004-05-06 08:09:50 51°12.069 2°47.658 3.2 255 10 99420 76
2004-05-06 08:09:55 51°12.074 2°47.654 3.2 241 10 99420 76
2004-05-06 08:09:59 51°12.078 2°47.651 3.1 246 10 99430 76
2004-05-06 08:10:06 51°12.085 2°47.648 2.9 227 10 99430 76
2004-05-06 08:10:10 51°12.088 2°47.647 2.9 227 10 99430 76
2004-05-06 08:10:16 51°12.093 2°47.647 2.2 195 10 99430 76
2004-05-06 08:10:20 51°12.097 2°47.647 1.7 150 10 99430 76
2004-05-06 08:10:25 51°12.101 2°47.648 1.1 199 10 99430 76
2004-05-06 08:10:30 51°12.104 2°47.65 0.9 197 10 99430 76
2004-05-06 08:10:35 51°12.108 2°47.652 0.3 191 10 99430 76
2004-05-06 08:10:40 51°12.111 2°47.654 1.9 156 10 99430 76
2004-05-06 08:10:45 51°12.114 2°47.657 1.8 165 10 99430 76
2004-05-06 08:10:50 51°12.117 2°47.66 2.1 165 10 99430 76
2004-05-06 08:10:55 51°12.12 2°47.663 2.3 171 10 99430 76
2004-05-06 08:11:00 51°12.122 2°47.665 2.7 174 10 99430 76
2004-05-06 08:11:03 51°12.123 2°47.666 2.9 168 10 99430 76
2004-05-06 08:11:10 51°12.125 2°47.668 3.3 165 10 99430 76
2004-05-06 08:11:15 51°12.126 2°47.668 3.5 165 10 99430 76
2004-05-06 08:11:20 51°12.126 2°47.667 4.2 164 10.1 99430 76
2004-05-06 08:11:25 51°12.126 2°47.666 4.2 156 10.1 99430 76
2004-05-06 08:11:30 51°12.126 2°47.665 4.1 151 10 99430 76
2004-05-06 08:11:35 51°12.126 2°47.664 3.7 149 10 99430 76
2004-05-06 08:11:39 51°12.125 2°47.663 4.1 149 10 99430 76
2004-05-06 08:11:44 51°12.125 2°47.663 4.1 142 10 99430 76
2004-05-06 08:11:51 51°12.125 2°47.662 4.2 142 10 99430 76
2004-05-06 08:11:55 51°12.125 2°47.661 3.7 138 10 99430 76
2004-05-06 08:12:00 51°12.125 2°47.661 3.9 141 10 99430 76
2004-05-06 08:12:06 51°12.125 2°47.66 4.3 130 10 99430 76
2004-05-06 08:12:10 51°12.124 2°47.66 4 129 10 99430 76
2004-05-06 08:12:15 51°12.124 2°47.659 4.2 128 10 99430 76
2004-05-06 08:12:20 51°12.124 2°47.658 4.6 128 10 99430 76
2004-05-06 08:12:26 51°12.123 2°47.658 4.3 128 10 99430 76
2004-05-06 08:12:30 51°12.123 2°47.657 4.2 125 10 99420 76
2004-05-06 08:12:35 51°12.123 2°47.657 3.6 119 10 99420 76
2004-05-06 08:12:40 51°12.122 2°47.656 4 125 10 99430 76
2004-05-06 08:12:45 51°12.121 2°47.655 4 125 10 99430 76
2004-05-06 08:12:50 51°12.121 2°47.654 3.8 125 10 99430 76
2004-05-06 08:12:55 51°12.12 2°47.654 4.5 125 10 99430 76
2004-05-06 08:13:00 51°12.12 2°47.653 4.3 124 10 99430 76
2004-05-06 08:13:06 51°12.119 2°47.652 4.5 122 10 99430 76
2004-05-06 08:13:11 51°12.118 2°47.651 4 128 10 99430 76
2004-05-06 08:13:15 51°12.117 2°47.651 4 119 10 99430 76
2004-05-06 08:13:20 51°12.117 2°47.65 3.9 119 10 99420 76
2004-05-06 08:13:25 51°12.116 2°47.649 3.7 113 10 99420 76
2004-05-06 08:13:29 51°12.115 2°47.648 3.6 118 10 99420 76
2004-05-06 08:13:35 51°12.114 2°47.647 4.6 101 10 99420 76
2004-05-06 08:13:40 51°12.114 2°47.646 3.8 113 10 99430 76
2004-05-06 08:13:44 51°12.113 2°47.645 4.2 120 10 99430 76
2004-05-06 08:13:50 51°12.112 2°47.644 4.6 117 10 99430 76
2004-05-06 08:13:55 51°12.111 2°47.643 4.6 117 10 99430 76
2004-05-06 08:13:59 51°12.11 2°47.642 5 113 10 99430 76
2004-05-06 08:14:04 51°12.109 2°47.641 4.9 116 10 99430 76
2004-05-06 08:14:10 51°12.108 2°47.64 5 115 10 99420 77
2004-05-06 08:14:15 51°12.107 2°47.639 6.2 111 10 99420 77
2004-05-06 08:14:20 51°12.106 2°47.638 5.9 111 10.1 99420 77
2004-05-06 08:14:25 51°12.105 2°47.637 6.5 111 10.1 99420 77
2004-05-06 08:14:30 51°12.104 2°47.636 6.5 113 10.1 99430 77
2004-05-06 08:14:35 51°12.103 2°47.634 6.3 114 10.1 99430 77
2004-05-06 08:14:39 51°12.103 2°47.633 6.3 115 10.1 99420 77
2004-05-06 08:14:46 51°12.101 2°47.632 6.1 112 10.1 99420 77
2004-05-06 08:14:50 51°12.1 2°47.631 5.4 120 10.1 99420 76
2004-05-06 08:14:56 51°12.099 2°47.629 6 117 10.1 99420 76
2004-05-06 08:15:00 51°12.098 2°47.628 6.1 113 10.1 99420 76
2004-05-06 08:15:06 51°12.097 2°47.626 5.3 109 10.1 99420 76
2004-05-06 08:15:10 51°12.096 2°47.625 5.3 110 10 99420 76
2004-05-06 08:15:15 51°12.096 2°47.624 5.9 109 10 99420 76
2004-05-06 08:15:20 51°12.094 2°47.622 5.3 107 10.1 99430 76
2004-05-06 08:15:25 51°12.093 2°47.621 5 112 10.1 99430 76
2004-05-06 08:15:30 51°12.093 2°47.62 5 113 10.1 99420 76
2004-05-06 08:15:35 51°12.091 2°47.619 5.1 109 10.1 99420 76
2004-05-06 08:15:40 51°12.09 2°47.617 5.3 110 10.1 99430 76
2004-05-06 08:15:46 51°12.089 2°47.615 5.2 107 10.1 99430 76
2004-05-06 08:15:50 51°12.087 2°47.614 5.1 103 10 99430 76
2004-05-06 08:15:55 51°12.086 2°47.613 5 100 10 99430 76
2004-05-06 08:16:00 51°12.084 2°47.613 4.6 96 10 99430 75
2004-05-06 08:16:05 51°12.083 2°47.612 4.7 95 10 99430 75
2004-05-06 08:16:10 51°12.081 2°47.612 4.8 87 10 99430 75
2004-05-06 08:16:15 51°12.079 2°47.612 4.9 82 10 99430 75
2004-05-06 08:16:20 51°12.077 2°47.612 4.4 81 10 99430 75
2004-05-06 08:16:23 51°12.076 2°47.612 4.8 69 10 99430 75
2004-05-06 08:16:30 51°12.072 2°47.612 4.9 66 10 99420 75
2004-05-06 08:16:36 51°12.067 2°47.613 6.1 54 10 99420 75
2004-05-06 08:16:40 51°12.064 2°47.614 5.7 53 10 99420 75
2004-05-06 08:16:45 51°12.059 2°47.615 5.8 46 10 99420 75
2004-05-06 08:16:50 51°12.053 2°47.616 5.7 45 10 99420 75
2004-05-06 08:16:55 51°12.047 2°47.616 6.4 39 10 99420 75
2004-05-06 08:17:00 51°12.039 2°47.617 6.5 39 10 99420 75
2004-05-06 08:17:06 51°12.03 2°47.618 6.4 35 10 99420 75
2004-05-06 08:17:10 51°12.024 2°47.619 6.7 34 10 99420 75
2004-05-06 08:17:15 51°12.015 2°47.619 7.4 31 10 99420 75
2004-05-06 08:17:20 51°12.006 2°47.618 7.3 27 9.9 99420 75
2004-05-06 08:17:25 51°11.996 2°47.616 7.2 24 9.9 99420 75
2004-05-06 08:17:30 51°11.986 2°47.614 7.1 24 9.9 99420 75
2004-05-06 08:17:35 51°11.976 2°47.61 7.5 19 9.9 99420 75
2004-05-06 08:17:40 51°11.966 2°47.604 7.6 15 9.9 99420 75
2004-05-06 08:17:46 51°11.954 2°47.596 7.5 9 9.9 99420 75
2004-05-06 08:17:50 51°11.946 2°47.59 7.2 10 9.9 99420 75
2004-05-06 08:17:55 51°11.936 2°47.582 7.3 7 9.9 99420 75
2004-05-06 08:17:59 51°11.928 2°47.574 7.4 9 10 99420 75
2004-05-06 08:18:05 51°11.916 2°47.562 8.1 6 10 99420 75
2004-05-06 08:18:10 51°11.906 2°47.552 7.7 11 10 99420 76
2004-05-06 08:18:15 51°11.895 2°47.542 8.1 1 10 99420 76
2004-05-06 08:18:20 51°11.885 2°47.531 8.9 2 10 99420 76
2004-05-06 08:18:24 51°11.877 2°47.523 8.8 7 10 99420 76
2004-05-06 08:18:30 51°11.864 2°47.51 9 4 10 99420 75
2004-05-06 08:18:35 51°11.854 2°47.499 9.1 4 10 99420 75
2004-05-06 08:18:40 51°11.843 2°47.488 9.6 2 10 99420 75
2004-05-06 08:18:44 51°11.834 2°47.479 9.9 5 10 99420 75
2004-05-06 08:18:50 51°11.821 2°47.467 9.9 8 10 99420 75
2004-05-06 08:18:55 51°11.81 2°47.456 9.6 8 10 99420 75
2004-05-06 08:19:00 51°11.799 2°47.446 9.5 8 10 99410 75
2004-05-06 08:19:06 51°11.786 2°47.434 9 3 10 99410 75
2004-05-06 08:19:10 51°11.777 2°47.426 8.9 4 10 99410 75
2004-05-06 08:19:15 51°11.766 2°47.415 9.2 3 10 99410 75
2004-05-06 08:19:19 51°11.757 2°47.406 9.6 5 10 99410 75
2004-05-06 08:19:24 51°11.747 2°47.395 9.4 3 10 99410 75
2004-05-06 08:19:30 51°11.734 2°47.381 9.4 358 10 99410 74
2004-05-06 08:19:35 51°11.723 2°47.369 10 5 10 99410 74
2004-05-06 08:19:40 51°11.713 2°47.357 9.2 1 10 99420 74
2004-05-06 08:19:44 51°11.705 2°47.347 9.4 3 10 99420 74
2004-05-06 08:19:51 51°11.691 2°47.329 9.7 3 10 99420 73
2004-05-06 08:19:56 51°11.681 2°47.316 8.5 359 10 99420 73
2004-05-06 08:20:00 51°11.673 2°47.306 9.1 356 10 99410 73
2004-05-06 08:20:06 51°11.661 2°47.294 9 5 10 99410 73
2004-05-06 08:20:10 51°11.653 2°47.289 9.1 8 10 99410 74
2004-05-06 08:20:15 51°11.643 2°47.284 8.1 15 10 99410 74
2004-05-06 08:20:20 51°11.633 2°47.282 8.2 16 10 99410 74
2004-05-06 08:20:26 51°11.621 2°47.282 9.1 25 10 99410 74
2004-05-06 08:20:30 51°11.614 2°47.283 9 27 10.1 99420 74
2004-05-06 08:20:35 51°11.605 2°47.287 7.5 42 10.1 99420 74
2004-05-06 08:20:40 51°11.598 2°47.292 7.3 47 10.1 99410 74
2004-05-06 08:20:45 51°11.591 2°47.297 6.7 50 10.1 99410 74
2004-05-06 08:20:50 51°11.585 2°47.303 6.6 43 10.1 99410 74
2004-05-06 08:20:55 51°11.58 2°47.308 7.2 49 10.1 99410 74
2004-05-06 08:21:00 51°11.575 2°47.314 7.5 50 10.1 99410 73
2004-05-06 08:21:06 51°11.57 2°47.321 7 53 10.1 99410 73
2004-05-06 08:21:10 51°11.567 2°47.325 6.8 52 10.1 99420 73
2004-05-06 08:21:15 51°11.564 2°47.33 6.5 67 10.1 99420 73
2004-05-06 08:21:20 51°11.561 2°47.334 6.6 69 10.1 99410 72
2004-05-06 08:21:23 51°11.56 2°47.336 6 80 10.1 99410 72
2004-05-06 08:21:30 51°11.558 2°47.339 6.2 82 10 99410 73
2004-05-06 08:21:36 51°11.556 2°47.339 6 85 10 99410 73
2004-05-06 08:21:40 51°11.556 2°47.339 5.9 92 10.1 99410 73
2004-05-06 08:21:46 51°11.555 2°47.337 5.9 98 10.1 99410 73
2004-05-06 08:21:47 51°11.555 2°47.337 5.9 96 10 99420 73
2004-05-06 08:21:55 51°11.555 2°47.334 5.7 103 10 99420 73
2004-05-06 08:22:00 51°11.554 2°47.331 6.1 104 10.1 99420 74
2004-05-06 08:22:05 51°11.554 2°47.33 5.5 114 10.1 99420 74
2004-05-06 08:22:11 51°11.554 2°47.327 5.6 115 10.1 99420 73
2004-05-06 08:22:16 51°11.553 2°47.325 4.5 115 10.1 99420 73
2004-05-06 08:22:21 51°11.553 2°47.323 4.2 114 10 99420 73
2004-05-06 08:22:26 51°11.552 2°47.321 4.7 121 10 99420 73
2004-05-06 08:22:31 51°11.552 2°47.319 4.4 117 10 99420 73
2004-05-06 08:22:36 51°11.551 2°47.317 4.8 118 10 99420 73
2004-05-06 08:22:41 51°11.55 2°47.316 4.2 119 10 99420 73
2004-05-06 08:22:46 51°11.55 2°47.314 5.1 133 10 99420 73
2004-05-06 08:22:51 51°11.549 2°47.312 4.7 131 10 99420 73
2004-05-06 08:22:56 51°11.549 2°47.311 4.8 136 10 99420 73
2004-05-06 08:23:00 51°11.548 2°47.309 4.9 135 10 99430 73
2004-05-06 08:23:06 51°11.547 2°47.307 4.6 131 10 99430 73
2004-05-06 08:23:11 51°11.547 2°47.306 4.4 134 10 99420 73
2004-05-06 08:23:16 51°11.546 2°47.305 4.5 139 10 99420 73
2004-05-06 08:23:21 51°11.546 2°47.303 4.8 136 10.1 99430 73
2004-05-06 08:23:26 51°11.545 2°47.302 5.6 144 10.1 99430 73
2004-05-06 08:23:31 51°11.544 2°47.3 5.9 138 10.1 99420 73
2004-05-06 08:23:36 51°11.544 2°47.299 6 136 10.1 99420 73
2004-05-06 08:23:40 51°11.543 2°47.298 6.6 134 10.1 99430 73
2004-05-06 08:23:46 51°11.542 2°47.296 5.1 131 10.1 99430 73
2004-05-06 08:23:51 51°11.542 2°47.295 5.5 129 10.1 99420 73
2004-05-06 08:23:56 51°11.541 2°47.293 4.9 134 10.1 99420 73
2004-05-06 08:24:00 51°11.541 2°47.292 5 135 10.1 99430 73
2004-05-06 08:24:06 51°11.54 2°47.291 4.8 135 10.1 99430 73
2004-05-06 08:24:11 51°11.539 2°47.289 4.6 137 10.1 99420 72
2004-05-06 08:24:16 51°11.539 2°47.288 5.5 137 10.1 99420 72
2004-05-06 08:24:20 51°11.538 2°47.287 5.1 141 10.1 99420 72
2004-05-06 08:24:26 51°11.538 2°47.286 4.7 130 10.1 99420 72
2004-05-06 08:24:31 51°11.537 2°47.285 4.8 134 10.1 99420 72
2004-05-06 08:24:36 51°11.537 2°47.284 4.9 135 10.1 99420 72
2004-05-06 08:24:40 51°11.536 2°47.283 4.9 139 10.1 99420 72
2004-05-06 08:24:45 51°11.535 2°47.282 4.6 128 10.1 99420 72
2004-05-06 08:24:50 51°11.535 2°47.28 4.5 135 10.1 99420 72
2004-05-06 08:24:55 51°11.534 2°47.279 4.7 135 10.1 99420 72
2004-05-06 08:25:00 51°11.534 2°47.278 5.1 140 10.1 99430 72
2004-05-06 08:25:05 51°11.533 2°47.277 5.7 140 10.1 99430 72
2004-05-06 08:25:10 51°11.533 2°47.276 5.6 141 10.1 99420 72
2004-05-06 08:25:15 51°11.532 2°47.275 5.4 146 10.1 99420 72
2004-05-06 08:25:20 51°11.532 2°47.274 5.3 147 10.1 99430 72
2004-05-06 08:25:25 51°11.531 2°47.273 5.3 147 10.1 99430 72
2004-05-06 08:25:30 51°11.531 2°47.272 5.9 149 10.2 99430 72
2004-05-06 08:25:35 51°11.53 2°47.272 5.3 144 10.2 99430 72
2004-05-06 08:25:40 51°11.53 2°47.271 5.1 142 10.2 99420 72
2004-05-06 08:25:46 51°11.529 2°47.27 4.8 144 10.2 99420 72
2004-05-06 08:25:50 51°11.529 2°47.27 5.5 146 10.1 99430 71
2004-05-06 08:25:55 51°11.529 2°47.27 4.8 151 10.1 99430 71
2004-05-06 08:26:00 51°11.529 2°47.269 4.9 151 10.1 99430 71
2004-05-06 08:26:04 51°11.528 2°47.269 5.5 150 10.1 99430 71
2004-05-06 08:26:10 51°11.528 2°47.269 5.3 152 10.1 99420 71
2004-05-06 08:26:15 51°11.527 2°47.269 5.2 150 10.1 99420 71
2004-05-06 08:26:20 51°11.527 2°47.269 5.2 148 10.1 99430 71
2004-05-06 08:26:25 51°11.526 2°47.269 4.9 147 10.1 99430 71
2004-05-06 08:26:30 51°11.526 2°47.269 5.1 147 10.1 99430 71
2004-05-06 08:26:35 51°11.526 2°47.269 5.5 143 10.1 99430 71
2004-05-06 08:26:40 51°11.526 2°47.27 5.5 150 10.1 99420 71
2004-05-06 08:26:45 51°11.526 2°47.27 5.6 148 10.1 99420 71
2004-05-06 08:26:50 51°11.526 2°47.27 5.7 150 10.1 99420 71
2004-05-06 08:26:56 51°11.526 2°47.271 4.7 145 10.1 99420 71
2004-05-06 08:27:00 51°11.526 2°47.271 4.6 145 10.2 99420 72
2004-05-06 08:27:05 51°11.526 2°47.272 5.4 147 10.2 99420 72
2004-05-06 08:27:10 51°11.526 2°47.273 5.3 149 10.2 99420 72
2004-05-06 08:27:15 51°11.526 2°47.273 6 144 10.2 99420 72
2004-05-06 08:27:20 51°11.526 2°47.274 5.7 141 10.2 99420 72
2004-05-06 08:27:25 51°11.526 2°47.274 3.9 135 10.2 99420 72
2004-05-06 08:27:30 51°11.526 2°47.275 4.5 148 10.2 99420 72
2004-05-06 08:27:35 51°11.526 2°47.276 4.3 142 10.2 99420 72
2004-05-06 08:27:40 51°11.526 2°47.276 3.9 136 10.2 99420 72
2004-05-06 08:27:45 51°11.527 2°47.277 4.2 148 10.2 99420 72
2004-05-06 08:27:50 51°11.527 2°47.277 3.8 146 10.2 99420 72
2004-05-06 08:27:55 51°11.528 2°47.278 4 163 10.2 99420 72
2004-05-06 08:28:00 51°11.528 2°47.279 4 155 10.2 99430 73
2004-05-06 08:28:05 51°11.529 2°47.28 3.8 151 10.2 99430 73
2004-05-06 08:28:10 51°11.529 2°47.28 3.8 159 10.2 99430 73
2004-05-06 08:28:15 51°11.53 2°47.281 3.9 160 10.2 99430 73
2004-05-06 08:28:20 51°11.531 2°47.282 4.1 155 10.2 99430 73
2004-05-06 08:28:25 51°11.532 2°47.283 4 158 10.2 99430 73
2004-05-06 08:28:30 51°11.533 2°47.283 4.2 165 10.2 99430 73
2004-05-06 08:28:35 51°11.534 2°47.284 5 159 10.2 99430 73
2004-05-06 08:28:40 51°11.535 2°47.285 5.3 167 10.3 99420 73
2004-05-06 08:28:46 51°11.536 2°47.288 5.6 161 10.3 99420 73
2004-05-06 08:28:50 51°11.538 2°47.289 5.1 168 10.3 99430 73
2004-05-06 08:28:55 51°11.54 2°47.292 5.7 169 10.3 99430 73
2004-05-06 08:29:00 51°11.542 2°47.294 5.2 168 10.3 99420 73
2004-05-06 08:29:04 51°11.544 2°47.297 5.3 160 10.3 99420 73
2004-05-06 08:29:10 51°11.548 2°47.302 5.1 161 10.3 99430 73
2004-05-06 08:29:15 51°11.551 2°47.306 4.1 164 10.3 99430 73
2004-05-06 08:29:20 51°11.555 2°47.311 3.9 164 10.2 99420 72
2004-05-06 08:29:26 51°11.56 2°47.316 3.9 160 10.2 99420 72
2004-05-06 08:29:28 51°11.562 2°47.319 3.7 161 10.2 99430 72
2004-05-06 08:29:35 51°11.568 2°47.326 3.4 160 10.2 99430 72
2004-05-06 08:29:40 51°11.573 2°47.332 3.1 159 10.2 99420 72
2004-05-06 08:29:46 51°11.579 2°47.34 3.4 158 10.2 99420 72
2004-05-06 08:29:50 51°11.583 2°47.345 4.1 158 10.2 99420 71
2004-05-06 08:29:55 51°11.589 2°47.351 3.5 164 10.2 99420 71
2004-05-06 08:30:00 51°11.594 2°47.358 3.6 165 10.2 99430 71
2004-05-06 08:30:06 51°11.601 2°47.365 2.9 167 10.2 99430 71
2004-05-06 08:30:08 51°11.604 2°47.368 3.3 160 10.1 99420 71
2004-05-06 08:30:15 51°11.612 2°47.376 3.3 161 10.1 99420 71
2004-05-06 08:30:20 51°11.617 2°47.382 3.2 160 10.1 99420 71
2004-05-06 08:30:25 51°11.623 2°47.388 3.7 161 10.1 99420 71
2004-05-06 08:30:30 51°11.628 2°47.394 3.6 157 10.1 99420 71
2004-05-06 08:30:36 51°11.634 2°47.401 3.3 148 10.1 99420 71
2004-05-06 08:30:40 51°11.638 2°47.406 3.4 149 10.2 99430 71
2004-05-06 08:30:44 51°11.642 2°47.41 3.1 141 10.2 99430 71
2004-05-06 08:30:50 51°11.648 2°47.418 2.7 134 10.2 99430 71
2004-05-06 08:30:56 51°11.653 2°47.425 3.2 129 10.2 99430 71
2004-05-06 08:31:00 51°11.656 2°47.43 3.3 132 10.2 99420 71
2004-05-06 08:31:06 51°11.661 2°47.438 3.3 135 10.2 99420 71
2004-05-06 08:31:10 51°11.665 2°47.443 3.3 131 10.2 99420 71
2004-05-06 08:31:15 51°11.668 2°47.449 3.6 129 10.2 99420 71
2004-05-06 08:31:20 51°11.672 2°47.456 4.2 127 10.2 99420 71
2004-05-06 08:31:24 51°11.675 2°47.461 4.4 128 10.2 99420 71
2004-05-06 08:31:29 51°11.679 2°47.468 4.5 120 10.2 99420 71
2004-05-06 08:31:36 51°11.684 2°47.477 4.5 133 10.2 99420 71
2004-05-06 08:31:39 51°11.686 2°47.481 4.3 135 10.2 99420 72
2004-05-06 08:31:44 51°11.689 2°47.488 4.4 141 10.2 99420 72
2004-05-06 08:31:50 51°11.693 2°47.496 4.3 141 10.3 99420 72
2004-05-06 08:31:55 51°11.697 2°47.502 5.7 128 10.3 99420 72
2004-05-06 08:31:59 51°11.699 2°47.508 5.2 44 10.3 99420 72
2004-05-06 08:32:04 51°11.703 2°47.514 5.3 140 10.3 99420 72
2004-05-06 08:32:10 51°11.706 2°47.521 5.8 135 10.3 99420 72
2004-05-06 08:32:15 51°11.709 2°47.528 4.6 135 10.3 99420 72
2004-05-06 08:32:20 51°11.712 2°47.533 5 136 10.3 99420 72
2004-05-06 08:32:25 51°11.715 2°47.539 4.1 134 10.3 99420 72
2004-05-06 08:32:30 51°11.718 2°47.545 4.9 133 10.3 99420 72
2004-05-06 08:32:35 51°11.721 2°47.55 4 136 10.3 99420 72
2004-05-06 08:32:40 51°11.723 2°47.555 4.2 136 10.3 99420 71
2004-05-06 08:32:45 51°11.726 2°47.561 4.2 137 10.3 99420 71
2004-05-06 08:32:51 51°11.729 2°47.567 4.1 139 10.3 99420 71
2004-05-06 08:32:55 51°11.731 2°47.57 3.9 138 10.3 99420 71
2004-05-06 08:33:00 51°11.734 2°47.575 3.7 142 10.3 99420 71
2004-05-06 08:33:03 51°11.735 2°47.578 3.6 138 10.3 99420 71
2004-05-06 08:33:08 51°11.738 2°47.583 3.5 139 10.3 99420 71
2004-05-06 08:33:15 51°11.742 2°47.589 3.7 136 10.3 99420 71
2004-05-06 08:33:20 51°11.744 2°47.593 3.6 138 10.3 99420 71
2004-05-06 08:33:24 51°11.746 2°47.597 3.8 138 10.3 99420 71
2004-05-06 08:33:30 51°11.749 2°47.602 3.6 139 10.3 99420 71
2004-05-06 08:33:35 51°11.751 2°47.606 3.2 137 10.3 99420 71
2004-05-06 08:33:40 51°11.753 2°47.61 3.6 138 10.3 99420 71
2004-05-06 08:33:44 51°11.755 2°47.614 3.3 142 10.3 99420 71
2004-05-06 08:33:50 51°11.757 2°47.619 3.2 143 10.3 99420 71
2004-05-06 08:33:55 51°11.759 2°47.623 3 136 10.3 99420 71
2004-05-06 08:34:00 51°11.761 2°47.628 3.1 139 10.3 99420 71
2004-05-06 08:34:06 51°11.763 2°47.633 3 139 10.3 99420 71
2004-05-06 08:34:10 51°11.764 2°47.636 3.2 140 10.4 99420 71
2004-05-06 08:34:15 51°11.766 2°47.64 3.3 140 10.4 99420 71
2004-05-06 08:34:20 51°11.768 2°47.645 3 137 10.4 99420 71
2004-05-06 08:34:25 51°11.769 2°47.649 4.2 147 10.4 99420 71
2004-05-06 08:34:31 51°11.771 2°47.654 4.5 136 10.4 99420 71
2004-05-06 08:34:36 51°11.772 2°47.658 5 138 10.4 99420 71
2004-05-06 08:34:39 51°11.773 2°47.661 5.2 139 10.4 99420 71
2004-05-06 08:34:44 51°11.774 2°47.665 5.4 144 10.4 99420 71
2004-05-06 08:34:51 51°11.776 2°47.671 5.6 134 10.4 99420 71
2004-05-06 08:34:55 51°11.777 2°47.675 4.9 138 10.4 99420 71
2004-05-06 08:35:00 51°11.778 2°47.679 4.9 138 10.4 99420 71
2004-05-06 08:35:04 51°11.779 2°47.683 4.9 135 10.4 99420 71
2004-05-06 08:35:11 51°11.781 2°47.689 5.1 136 10.4 99420 70
2004-05-06 08:35:15 51°11.782 2°47.693 5 143 10.4 99420 70
2004-05-06 08:35:20 51°11.783 2°47.697 4.7 138 10.4 99420 71
2004-05-06 08:35:24 51°11.784 2°47.701 4.4 148 10.4 99420 71
2004-05-06 08:35:30 51°11.786 2°47.706 4.2 147 10.4 99420 71
2004-05-06 08:35:35 51°11.788 2°47.71 4.1 144 10.4 99420 71
2004-05-06 08:35:40 51°11.79 2°47.715 3.6 144 10.5 99420 71
2004-05-06 08:35:45 51°11.792 2°47.719 3.5 140 10.5 99420 71
2004-05-06 08:35:50 51°11.793 2°47.723 4 149 10.5 99420 71
2004-05-06 08:35:55 51°11.795 2°47.727 3.6 146 10.5 99420 71
2004-05-06 08:36:00 51°11.797 2°47.731 3.3 148 10.5 99420 71
2004-05-06 08:36:04 51°11.799 2°47.734 4.2 148 10.5 99420 71
2004-05-06 08:36:10 51°11.801 2°47.739 3.9 151 10.5 99410 71
2004-05-06 08:36:15 51°11.804 2°47.743 4.4 159 10.5 99410 71
2004-05-06 08:36:20 51°11.806 2°47.747 4.3 154 10.5 99410 71
2004-05-06 08:36:25 51°11.808 2°47.751 4.4 156 10.5 99410 71
2004-05-06 08:36:30 51°11.811 2°47.755 4.6 157 10.5 99420 71
2004-05-06 08:36:35 51°11.813 2°47.759 4.4 162 10.5 99420 71
2004-05-06 08:36:40 51°11.816 2°47.763 4.4 163 10.5 99410 71
2004-05-06 08:36:44 51°11.818 2°47.767 3.7 162 10.5 99410 71
2004-05-06 08:36:50 51°11.822 2°47.772 3.4 162 10.5 99420 70
2004-05-06 08:36:55 51°11.824 2°47.776 3.7 160 10.5 99420 70
2004-05-06 08:37:00 51°11.827 2°47.78 3.9 157 10.4 99420 70
2004-05-06 08:37:04 51°11.83 2°47.783 3.9 154 10.4 99420 70
2004-05-06 08:37:10 51°11.833 2°47.788 3.7 153 10.4 99410 69
2004-05-06 08:37:16 51°11.837 2°47.793 3.4 164 10.4 99410 69
2004-05-06 08:37:20 51°11.839 2°47.796 4.1 162 10.4 99410 69
2004-05-06 08:37:25 51°11.842 2°47.801 4.3 163 10.4 99410 69
2004-05-06 08:37:31 51°11.846 2°47.806 4.6 166 10.3 99420 69
2004-05-06 08:37:36 51°11.849 2°47.81 4.5 164 10.3 99420 69
2004-05-06 08:37:40 51°11.851 2°47.813 6.4 166 10.3 99420 69
2004-05-06 08:37:45 51°11.854 2°47.818 5.5 166 10.3 99420 69
2004-05-06 08:37:49 51°11.857 2°47.822 5.7 165 10.3 99410 69
2004-05-06 08:37:55 51°11.86 2°47.827 5.6 154 10.3 99410 69
2004-05-06 08:38:00 51°11.863 2°47.832 5.1 159 10.3 99420 69
2004-05-06 08:38:05 51°11.865 2°47.837 5.6 155 10.3 99420 69
2004-05-06 08:38:10 51°11.868 2°47.842 5.8 154 10.3 99410 68
2004-05-06 08:38:15 51°11.87 2°47.847 5.9 151 10.3 99410 68
2004-05-06 08:38:20 51°11.873 2°47.852 6.2 153 10.3 99420 68
2004-05-06 08:38:25 51°11.875 2°47.857 5.3 131 10.3 99420 68
2004-05-06 08:38:30 51°11.877 2°47.862 5.3 131 10.3 99410 69
2004-05-06 08:38:35 51°11.879 2°47.868 5.5 127 10.3 99410 69
2004-05-06 08:38:40 51°11.881 2°47.874 5.2 128 10.4 99410 69
2004-05-06 08:38:45 51°11.883 2°47.879 4.8 127 10.4 99410 69
2004-05-06 08:38:50 51°11.885 2°47.885 4.8 127 10.4 99410 69
2004-05-06 08:38:55 51°11.887 2°47.89 5 136 10.4 99410 69
2004-05-06 08:39:00 51°11.888 2°47.896 4.7 136 10.4 99410 70
2004-05-06 08:39:03 51°11.889 2°47.9 5.6 134 10.4 99410 70
2004-05-06 08:39:10 51°11.892 2°47.908 5.2 130 10.5 99410 71
2004-05-06 08:39:15 51°11.894 2°47.913 5.2 156 10.5 99410 71
2004-05-06 08:39:19 51°11.895 2°47.918 5.2 144 10.5 99410 71
2004-05-06 08:39:25 51°11.897 2°47.925 5.8 147 10.5 99410 71
2004-05-06 08:39:30 51°11.899 2°47.931 5.9 146 10.5 99410 71
2004-05-06 08:39:35 51°11.9 2°47.937 5.5 143 10.5 99410 71
2004-05-06 08:39:40 51°11.902 2°47.943 5 147 10.5 99410 71
2004-05-06 08:39:44 51°11.903 2°47.947 4.9 144 10.5 99410 71
2004-05-06 08:39:50 51°11.905 2°47.954 4.5 144 10.5 99410 71
2004-05-06 08:39:55 51°11.907 2°47.96 4.4 151 10.5 99410 71
2004-05-06 08:40:00 51°11.909 2°47.965 3.8 148 10.5 99410 70
2004-05-06 08:40:04 51°11.91 2°47.97 4.2 145 10.5 99410 70
2004-05-06 08:40:10 51°11.913 2°47.976 4.2 142 10.4 99410 69
2004-05-06 08:40:15 51°11.915 2°47.982 3.8 138 10.4 99410 69
2004-05-06 08:40:20 51°11.917 2°47.988 3.8 135 10.4 99410 69
2004-05-06 08:40:25 51°11.919 2°47.993 4.1 143 10.4 99410 69
2004-05-06 08:40:30 51°11.921 2°47.998 4.4 153 10.5 99420 70
2004-05-06 08:40:35 51°11.923 2°48.004 3.8 154 10.5 99420 70
2004-05-06 08:40:40 51°11.925 2°48.009 3.6 154 10.5 99410 70
2004-05-06 08:40:45 51°11.927 2°48.014 4.5 158 10.5 99410 70
2004-05-06 08:40:50 51°11.929 2°48.019 4.3 165 10.5 99410 70
2004-05-06 08:40:55 51°11.932 2°48.024 3.5 159 10.5 99410 70
2004-05-06 08:41:00 51°11.934 2°48.029 3.5 154 10.5 99420 70
2004-05-06 08:41:04 51°11.936 2°48.033 3.6 149 10.5 99420 70
2004-05-06 08:41:10 51°11.939 2°48.039 4.3 143 10.5 99420 70
2004-05-06 08:41:15 51°11.941 2°48.044 4.1 143 10.5 99420 70
2004-05-06 08:41:20 51°11.944 2°48.048 3.7 139 10.5 99420 70
2004-05-06 08:41:26 51°11.947 2°48.054 3.4 131 10.5 99420 70
2004-05-06 08:41:30 51°11.949 2°48.058 3.3 134 10.5 99420 70
2004-05-06 08:41:35 51°11.951 2°48.063 3.6 138 10.5 99420 70
2004-05-06 08:41:40 51°11.954 2°48.067 3.6 134 10.5 99420 70
2004-05-06 08:41:43 51°11.955 2°48.071 3.7 142 10.5 99420 70
2004-05-06 08:41:50 51°11.959 2°48.077 4.3 150 10.5 99410 70
2004-05-06 08:41:56 51°11.961 2°48.083 3.4 152 10.5 99410 70
2004-05-06 08:42:00 51°11.963 2°48.087 3.6 157 10.5 99420 70
2004-05-06 08:42:05 51°11.966 2°48.092 3.3 134 10.5 99420 70
2004-05-06 08:42:10 51°11.968 2°48.098 3 137 10.5 99420 70
2004-05-06 08:42:15 51°11.97 2°48.103 3.4 142 10.5 99420 70
2004-05-06 08:42:20 51°11.972 2°48.108 3.9 154 10.5 99420 70
2004-05-06 08:42:25 51°11.974 2°48.113 5.2 152 10.5 99420 70
2004-05-06 08:42:30 51°11.976 2°48.119 5 152 10.5 99420 70
2004-05-06 08:42:35 51°11.978 2°48.124 4.9 144 10.5 99420 70
2004-05-06 08:42:40 51°11.98 2°48.129 4.4 145 10.5 99420 70
2004-05-06 08:42:45 51°11.982 2°48.135 4.9 145 10.5 99420 70
2004-05-06 08:42:50 51°11.984 2°48.14 4.4 140 10.5 99420 69
2004-05-06 08:42:55 51°11.985 2°48.146 4.4 139 10.5 99420 69
2004-05-06 08:43:00 51°11.987 2°48.152 4 139 10.5 99420 69
2004-05-06 08:43:05 51°11.989 2°48.157 2.9 132 10.5 99420 69
2004-05-06 08:43:10 51°11.99 2°48.163 3.3 136 10.5 99420 69
2004-05-06 08:43:15 51°11.992 2°48.169 3.2 124 10.5 99420 69
2004-05-06 08:43:19 51°11.993 2°48.174 2.8 127 10.5 99420 69
2004-05-06 08:43:25 51°11.994 2°48.181 2.9 145 10.5 99420 69
2004-05-06 08:43:30 51°11.996 2°48.186 2.7 148 10.5 99420 70
2004-05-06 08:43:35 51°11.997 2°48.192 2.1 129 10.5 99420 70
2004-05-06 08:43:40 51°11.998 2°48.198 2.2 126 10.6 99420 70
2004-05-06 08:43:45 51°12 2°48.204 2.3 115 10.6 99420 70
2004-05-06 08:43:50 51°12.001 2°48.209 2.5 115 10.6 99420 70
2004-05-06 08:43:55 51°12.003 2°48.215 3.7 134 10.6 99420 70
2004-05-06 08:44:00 51°12.005 2°48.22 3.5 135 10.6 99420 70
2004-05-06 08:44:04 51°12.006 2°48.224 4.2 147 10.6 99420 70
2004-05-06 08:44:10 51°12.009 2°48.23 4.1 147 10.6 99420 71
2004-05-06 08:44:15 51°12.011 2°48.235 4.6 141 10.6 99420 71
2004-05-06 08:44:19 51°12.012 2°48.239 4.5 142 10.6 99420 70
2004-05-06 08:44:26 51°12.016 2°48.246 4.3 138 10.6 99420 70
2004-05-06 08:44:30 51°12.018 2°48.249 4.5 144 10.7 99420 70
2004-05-06 08:44:36 51°12.02 2°48.255 4.4 144 10.7 99420 70
2004-05-06 08:44:40 51°12.022 2°48.259 4.2 144 10.7 99420 70
2004-05-06 08:44:44 51°12.024 2°48.263 3.8 142 10.7 99420 70
2004-05-06 08:44:50 51°12.027 2°48.269 3.6 144 10.7 99420 70
2004-05-06 08:44:55 51°12.029 2°48.274 4 140 10.7 99420 70
2004-05-06 08:45:00 51°12.031 2°48.279 4 141 10.7 99430 70
2004-05-06 08:45:03 51°12.033 2°48.282 4.1 150 10.7 99430 70
2004-05-06 08:45:10 51°12.036 2°48.289 3.4 146 10.7 99420 70
2004-05-06 08:45:15 51°12.038 2°48.294 3.6 131 10.7 99420 70
2004-05-06 08:45:20 51°12.04 2°48.299 3.9 135 10.6 99420 69
2004-05-06 08:45:24 51°12.042 2°48.303 3.7 138 10.6 99420 69
2004-05-06 08:45:30 51°12.044 2°48.309 3.7 137 10.7 99420 70
2004-05-06 08:45:36 51°12.047 2°48.316 3.4 133 10.7 99420 70
2004-05-06 08:45:40 51°12.048 2°48.32 3.4 132 10.6 99420 70
2004-05-06 08:45:45 51°12.05 2°48.326 3.5 137 10.6 99420 70
2004-05-06 08:45:50 51°12.052 2°48.331 3.4 143 10.7 99420 70
2004-05-06 08:45:55 51°12.053 2°48.336 3.3 138 10.7 99420 70
2004-05-06 08:46:00 51°12.055 2°48.342 3.5 133 10.7 99420 70
2004-05-06 08:46:05 51°12.057 2°48.348 3.8 127 10.7 99420 70
2004-05-06 08:46:10 51°12.058 2°48.353 3.6 122 10.7 99430 70
2004-05-06 08:46:15 51°12.06 2°48.359 3.3 134 10.7 99430 70
2004-05-06 08:46:20 51°12.062 2°48.364 3 136 10.7 99420 70
2004-05-06 08:46:25 51°12.064 2°48.369 4 137 10.7 99420 70
2004-05-06 08:46:30 51°12.066 2°48.374 4.9 142 10.7 99420 70
2004-05-06 08:46:35 51°12.068 2°48.379 4 128 10.7 99420 70
2004-05-06 08:46:40 51°12.07 2°48.384 3.5 134 10.7 99420 70
2004-05-06 08:46:44 51°12.072 2°48.388 4 148 10.7 99420 70
2004-05-06 08:46:50 51°12.074 2°48.394 3.7 139 10.7 99420 70
2004-05-06 08:46:55 51°12.077 2°48.399 4.3 147 10.7 99420 70
2004-05-06 08:47:00 51°12.079 2°48.403 3.6 139 10.7 99420 70
2004-05-06 08:47:04 51°12.081 2°48.407 3.9 145 10.7 99420 70
2004-05-06 08:47:10 51°12.084 2°48.411 4.2 144 10.7 99420 69
2004-05-06 08:47:15 51°12.087 2°48.416 5.8 141 10.7 99420 69
2004-05-06 08:47:20 51°12.09 2°48.42 5.2 136 10.7 99420 69
2004-05-06 08:47:25 51°12.093 2°48.424 4.8 146 10.7 99420 69
2004-05-06 08:47:30 51°12.095 2°48.428 4.5 142 10.7 99420 69
2004-05-06 08:47:35 51°12.098 2°48.432 4.7 140 10.7 99420 69
2004-05-06 08:47:40 51°12.101 2°48.436 4.4 136 10.7 99420 69
2004-05-06 08:47:46 51°12.104 2°48.442 4.4 132 10.7 99420 69
2004-05-06 08:47:51 51°12.107 2°48.446 4.6 132 10.7 99420 69
2004-05-06 08:47:56 51°12.109 2°48.45 4.8 130 10.7 99420 69
2004-05-06 08:48:00 51°12.111 2°48.454 4.7 130 10.6 99430 69
2004-05-06 08:48:05 51°12.114 2°48.459 4.4 132 10.6 99430 69
2004-05-06 08:48:10 51°12.116 2°48.463 4.4 132 10.7 99420 69
2004-05-06 08:48:16 51°12.119 2°48.469 4 135 10.7 99420 69
2004-05-06 08:48:20 51°12.121 2°48.473 3.8 136 10.6 99420 68
2004-05-06 08:48:25 51°12.123 2°48.478 3.5 135 10.6 99420 68
2004-05-06 08:48:30 51°12.125 2°48.483 3.1 138 10.6 99420 68
2004-05-06 08:48:35 51°12.126 2°48.489 3.3 158 10.6 99420 68
2004-05-06 08:48:40 51°12.128 2°48.494 3.2 148 10.6 99430 68
2004-05-06 08:48:44 51°12.13 2°48.498 2.9 159 10.6 99430 68
2004-05-06 08:48:50 51°12.132 2°48.504 3 161 10.6 99420 68
2004-05-06 08:48:55 51°12.134 2°48.51 3.2 161 10.6 99420 68
2004-05-06 08:49:00 51°12.136 2°48.515 3 152 10.6 99420 68
2004-05-06 08:49:03 51°12.137 2°48.518 2.2 145 10.6 99420 68
2004-05-06 08:49:10 51°12.14 2°48.526 3.3 148 10.6 99420 67
2004-05-06 08:49:15 51°12.141 2°48.531 3.6 144 10.6 99420 67
2004-05-06 08:49:19 51°12.143 2°48.536 4.2 146 10.6 99430 67
2004-05-06 08:49:25 51°12.145 2°48.542 4.7 140 10.6 99430 67
2004-05-06 08:49:30 51°12.146 2°48.548 4.6 149 10.6 99420 67
2004-05-06 08:49:35 51°12.148 2°48.553 4.9 149 10.6 99420 67
2004-05-06 08:49:40 51°12.15 2°48.559 4.4 138 10.6 99420 67
2004-05-06 08:49:44 51°12.151 2°48.563 4.6 135 10.6 99420 67
2004-05-06 08:49:50 51°12.153 2°48.57 4.5 131 10.6 99430 67
2004-05-06 08:49:56 51°12.155 2°48.577 4.7 127 10.6 99430 67
2004-05-06 08:50:00 51°12.156 2°48.581 4.1 125 10.6 99420 67
2004-05-06 08:50:05 51°12.158 2°48.587 3.8 129 10.6 99420 67
2004-05-06 08:50:11 51°12.16 2°48.593 3.6 130 10.6 99420 67
2004-05-06 08:50:16 51°12.162 2°48.599 3.6 132 10.6 99420 67
2004-05-06 08:50:20 51°12.163 2°48.603 3.9 136 10.7 99420 68
2004-05-06 08:50:25 51°12.165 2°48.609 6 132 10.7 99420 68
2004-05-06 08:50:30 51°12.167 2°48.614 5.4 127 10.7 99420 68
2004-05-06 08:50:35 51°12.168 2°48.62 6.2 133 10.7 99420 68
2004-05-06 08:50:40 51°12.17 2°48.625 6 135 10.7 99420 69
2004-05-06 08:50:46 51°12.172 2°48.632 5.9 135 10.7 99420 69
2004-05-06 08:50:50 51°12.174 2°48.636 5.4 133 10.8 99420 68
2004-05-06 08:50:55 51°12.175 2°48.642 4.7 131 10.8 99420 68
2004-05-06 08:51:00 51°12.177 2°48.648 5 133 10.7 99420 68
2004-05-06 08:51:05 51°12.178 2°48.653 5.7 132 10.7 99420 68
2004-05-06 08:51:10 51°12.18 2°48.659 5.1 127 10.8 99420 68
2004-05-06 08:51:15 51°12.182 2°48.665 5.3 129 10.8 99420 68
2004-05-06 08:51:19 51°12.183 2°48.669 5.2 123 10.7 99420 68
2004-05-06 08:51:26 51°12.185 2°48.677 6.2 128 10.7 99420 68
2004-05-06 08:51:30 51°12.187 2°48.682 5.4 127 10.7 99420 67
2004-05-06 08:51:35 51°12.189 2°48.687 6 130 10.7 99420 67
2004-05-06 08:51:40 51°12.19 2°48.693 5.6 131 10.7 99430 67
2004-05-06 08:51:45 51°12.192 2°48.699 5.6 135 10.7 99430 67
2004-05-06 08:51:50 51°12.194 2°48.704 5.5 135 10.7 99420 67
2004-05-06 08:51:55 51°12.195 2°48.71 6.6 130 10.7 99420 67
2004-05-06 08:52:00 51°12.197 2°48.715 6.9 225 10.7 99420 66
2004-05-06 08:52:06 51°12.199 2°48.722 6.2 136 10.7 99420 66
2004-05-06 08:52:10 51°12.201 2°48.726 6 135 10.7 99420 66
2004-05-06 08:52:15 51°12.202 2°48.732 5.6 137 10.7 99420 66
2004-05-06 08:52:20 51°12.204 2°48.738 5.5 134 10.7 99420 66
2004-05-06 08:52:24 51°12.206 2°48.742 4.7 135 10.7 99420 66
2004-05-06 08:52:30 51°12.208 2°48.749 4.4 133 10.6 99420 66
2004-05-06 08:52:35 51°12.21 2°48.754 4 141 10.6 99420 66
2004-05-06 08:52:40 51°12.212 2°48.76 4.5 134 10.7 99420 65
2004-05-06 08:52:45 51°12.213 2°48.765 5.8 125 10.7 99420 65
2004-05-06 08:52:50 51°12.215 2°48.771 5.5 130 10.7 99420 66
2004-05-06 08:52:55 51°12.217 2°48.776 4.2 128 10.7 99420 66